Home > Products > Valid Products > TAF

000
FTUS41 KBUF 281300 AAA
TAFIAG
TAF AMD
KIAG 281332Z 2814/2912 27014KT 1SM -SN BKN022
      TEMPO 2814/2815 5SM -SN BKN035
     FM281500 28012G18KT P6SM VCSH SCT025 BKN035
     FM281800 26012KT P6SM SCT025 BKN035
     FM290000 24006KT P6SM SCT035 OVC080
     FM290300 24004KT P6SM OVC035
     FM290600 VRB03KT P6SM VCSH OVC025=



000
FTUS41 KBUF 281200 AAA
TAFJHW
TAF AMD
KJHW 281229Z 2812/2912 29010KT 6SM -SN SCT015 BKN035
      TEMPO 2813/2815 4SM -SN BKN025
     FM281500 28010KT P6SM VCSH SCT015 BKN025
     FM281800 27010KT P6SM SCT025 BKN040
     FM282300 22006KT P6SM BKN025
     FM290900 18007KT P6SM BKN025
      AMD LTD TO CLD VIS AND WIND=



000
FTUS41 KBUF 281100
TAFART
TAF
KART 281138Z 2812/2912 31004KT P6SM SCT025 BKN040
     FM281500 29010KT P6SM SCT025 BKN035
     FM282300 25006KT P6SM VCSH BKN035
     FM290200 23004KT 4SM -SN BKN025
     FM290800 VRB04KT P6SM VCSH BKN040=



000
FTUS41 KBUF 281100
TAFJHW
TAF
KJHW 281138Z 2812/2912 29010KT 4SM -SN SCT008 BKN015
      TEMPO 2812/2814 2SM -SN
     FM281500 28010KT P6SM VCSH SCT015 BKN025
     FM281800 27010KT P6SM SCT025 BKN040
     FM282300 22006KT P6SM BKN025
     FM290900 18007KT P6SM BKN025
      AMD LTD TO CLD VIS AND WIND=



000
FTUS41 KBUF 281100
TAFROC
TAF
KROC 281138Z 2812/2912 28012KT 6SM -SHSN SCT025 BKN035
      TEMPO 2812/2815 4SM -SHSN BKN025
     FM281500 28012G18KT P6SM SCT025 BKN035
     FM281800 27012KT P6SM SCT025 BKN035
     FM282300 24006KT P6SM SCT035 BKN100
     FM290600 20004KT P6SM OVC035
     FM291000 17006KT P6SM OVC025=



000
FTUS41 KBUF 281100
TAFBUF
TAF
KBUF 281138Z 2812/2912 28012KT P6SM BKN040
     FM281500 27012G18KT P6SM FEW040 BKN080
     FM281800 26010KT P6SM SCT025 BKN040
     FM282300 24008KT P6SM VCSH BKN040
     FM290200 22005KT P6SM VCSH OVC025
     FM290600 19007KT P6SM OVC025=



000
FTUS41 KBUF 281100
TAFIAG
TAF
KIAG 281138Z 2812/2912 27014KT 6SM -SN BKN035
      TEMPO 2812/2814 4SM -SN BKN025
     FM281400 28012G18KT P6SM VCSH SCT025 BKN035
     FM281800 26012KT P6SM SCT025 BKN035
     FM290000 24006KT P6SM SCT035 OVC080
     FM290300 24004KT P6SM OVC035
     FM290600 VRB03KT P6SM VCSH OVC025=



000
FTUS41 KBUF 281100 AAB
TAFIAG
TAF AMD
KIAG 281106Z 2811/2906 27012KT 6SM -SN BKN035
      TEMPO 2812/2814 4SM -SN BKN025
     FM281400 28012G18KT P6SM BKN040
     FM290100 23006KT P6SM VCSH OVC025=



000
FTUS41 KBUF 280900 AAC
TAFJHW
TAF AMD
KJHW 280959Z 2810/2906 30012KT 6SM -SN SCT025 BKN040
      TEMPO 2810/2814 4SM -SN BKN025
     FM281400 28010KT P6SM VCSH BKN025
     FM281700 26008KT P6SM BKN040
     FM290000 21005KT P6SM VCSH OVC025
      AMD LTD TO CLD VIS AND WIND=



000
FTUS41 KBUF 280900 AAA
TAFART
TAF AMD
KART 280924Z 2809/2906 VRB03KT P6SM SCT040
     FM281300 30006KT P6SM BKN040
     FM281800 27008KT P6SM BKN040
     FM290200 25006KT 5SM -SN OVC025=



000
FTUS41 KBUF 280900 AAB
TAFJHW
TAF AMD
KJHW 280923Z 2809/2906 30010KT 6SM -SN SCT025 BKN040
     FM281400 28008KT P6SM VCSH BKN025
     FM281700 26008KT P6SM BKN040
     FM290000 21005KT P6SM VCSH OVC025
      AMD LTD TO CLD VIS AND WIND=



000
FTUS41 KBUF 280900 AAB
TAFROC
TAF AMD
KROC 280922Z 2809/2906 30012G18KT 5SM -SN SCT025 BKN035
     FM281100 28012KT P6SM VCSH BKN035
     FM282100 26008KT P6SM BKN035
     FM290200 24006KT P6SM BKN025=



000
FTUS41 KBUF 280900 AAA
TAFIAG
TAF AMD
KIAG 280920Z 2809/2906 28010KT P6SM SCT040 BKN070
     FM281400 28012G18KT P6SM BKN040
     FM290100 23006KT P6SM VCSH OVC025=



000
FTUS41 KBUF 280900 AAB
TAFBUF
TAF AMD
KBUF 280919Z 2809/2906 27010KT P6SM BKN070
     FM281400 28012G18KT P6SM BKN040
     FM290000 24008KT 5SM -SHSN OVC025
     FM290300 22005KT P6SM OVC025=



000
FTUS41 KBUF 280800 AAA
TAFJHW
TAF AMD
KJHW 280835Z 2809/2906 30010KT 6SM -SN SCT025 BKN040
     FM281400 28008KT P6SM VCSH BKN025
     FM281700 26008KT P6SM BKN040
     FM290000 21005KT P6SM VCSH OVC025
      AMD LTD TO CLD VIS AND WIND=



000
FTUS41 KBUF 280700 AAA
TAFROC
TAF AMD
KROC 280712Z 2807/2906 30008KT 4SM -SN SCT025 BKN035
      TEMPO 2808/2810 2SM -SN BKN015
     FM281300 27012G20KT P6SM VCSH BKN025
     FM281900 27010KT P6SM BKN040
     FM290100 25005KT P6SM BKN030=



000
FTUS41 KBUF 280700 AAA
TAFBUF
TAF AMD
KBUF 280711Z 2807/2906 30012KT P6SM BKN040
     FM281700 25010KT P6SM BKN025
     FM290000 24008KT 5SM -SHSN OVC015
     FM290300 22005KT P6SM OVC025=



000
FTUS41 KBUF 280600 CCA
TAFART
TAF COR
KART 280619Z 2806/2906 VRB03KT P6SM SCT008 BKN040
     FM280800 32006KT P6SM BKN040
     FM282300 25008KT 5SM -SHSN OVC025
     FM290200 VRB03KT P6SM BKN040=



000
FTUS41 KBUF 280500
TAFJHW
TAF
KJHW 280520Z 2806/2906 30010G18KT 3SM -SN SCT008 OVC015
      TEMPO 2806/2810 2SM -SN BKN008
     FM281400 28008KT P6SM VCSH BKN025
     FM281700 26008KT P6SM BKN040
     FM290000 21005KT P6SM VCSH OVC025
      AMD LTD TO CLD VIS AND WIND=



000
FTUS41 KBUF 280500
TAFROC
TAF
KROC 280520Z 2806/2906 29008KT 4SM -SHSN OVC025
     FM281300 27012G20KT P6SM VCSH BKN025
     FM281900 27010KT P6SM BKN040
     FM290100 25005KT P6SM BKN030=



000
FTUS41 KBUF 280500
TAFART
TAF
KART 280520Z 2806/2906 VRB03KT P6SM VCSH BKN008
      TEMPO 2806/2808 SCT008 BKN040
     FM280800 32006KT P6SM BKN040
     FM282300 25008KT 5SM -SHSN OVC025
     FM290200 VRB03KT P6SM BKN040=



000
FTUS41 KBUF 280500
TAFIAG
TAF
KIAG 280520Z 2806/2906 31012KT P6SM BKN040
     FM280900 28008KT P6SM BKN040
     FM281800 26010KT P6SM BKN025
     FM290100 23006KT P6SM VCSH OVC025=



000
FTUS41 KBUF 280500
TAFBUF
TAF
KBUF 280520Z 2806/2906 31010KT P6SM VCSH SCT005 BKN025
     FM280700 29008KT P6SM BKN040
     FM281700 25010KT P6SM BKN025
     FM290000 24008KT 5SM -SHSN OVC015
     FM290300 22005KT P6SM OVC025=



000
FTUS41 KBUF 280400 AAA
TAFBUF
TAF AMD
KBUF 280455Z 2805/2824 34008KT 2SM -SHSN OVC008
     FM280530 30008KT 3SM -SHSN OVC015
     FM280600 28010KT P6SM BKN040
     FM281700 25010KT P6SM BKN025=



000
FTUS41 KBUF 280300 AAC
TAFIAG
TAF AMD
KIAG 280354Z 2804/2824 34005KT 1/2SM SHSN OVC008
     FM280430 31006KT 3SM -SHSN OVC015
     FM280600 28010KT P6SM BKN040
     FM281700 26010KT P6SM BKN025=



000
FTUS41 KBUF 280300 AAC
TAFIAG
TAF AMD
KIAG 280354Z 2804/2824 34005KT 1/2SM SHSN OVC008
     FM280430 31006KT 3SM -SHSN OVC015
     FM280600 28010KT P6SM BKN040
     FM281700 26010KT P6SM BKN025=



000
FTUS41 KBUF 280300 AAE
TAFBUF
TAF AMD
KBUF 280341Z 2804/2824 34005KT 1SM -SHSN OVC008
     FM280500 30008KT 3SM -SHSN OVC015
     FM280600 28010KT P6SM BKN040
     FM281700 25010KT P6SM BKN025=



000
FTUS41 KBUF 280200 AAB
TAFART
TAF AMD
KART 280249Z 2803/2824 VRB03KT P6SM VCSH BKN040
     FM281200 30008KT P6SM BKN050
     FM282100 26008KT P6SM VCSH BKN040=



000
FTUS41 KBUF 280200 AAB
TAFIAG
TAF AMD
KIAG 280249Z 2803/2824 34005KT 1SM -SHSN OVC008
     FM280400 31006KT 3SM -SHSN OVC015
     FM280600 28010KT P6SM BKN040
     FM281700 26010KT P6SM BKN025=



000
FTUS41 KBUF 280200 AAD
TAFBUF
TAF AMD
KBUF 280249Z 2803/2824 34005KT 1SM -SHSN OVC008
     FM280400 30008KT 3SM -SHSN OVC015
     FM280600 28010KT P6SM BKN040
     FM281700 25010KT P6SM BKN025=



000
FTUS41 KBUF 280200 AAA
TAFJHW
TAF AMD
KJHW 280249Z 2803/2824 31012KT 1SM -SHSN OVC008
     FM280600 30010KT 3SM -SHSN OVC015
     FM281300 28008KT P6SM VCSH BKN025
     FM281700 26008KT P6SM BKN040
      AMD LTD TO CLD VIS AND WIND=



000
FTUS41 KBUF 280200 AAA
TAFROC
TAF AMD
KROC 280249Z 2803/2824 33006KT P6SM VCSH OVC040
     FM280600 29008KT 3SM -SHSN OVC015
     FM281300 27012G20KT P6SM VCSH BKN025
     FM281900 27010KT P6SM BKN040=



000
FTUS41 KBUF 280200 AAC
TAFBUF
TAF AMD
KBUF 280215Z 2802/2824 32010KT 1SM -SHSN OVC008
     FM280400 29008KT 3SM -SHSN OVC015
     FM280600 28010KT P6SM BKN040
     FM281700 25010KT P6SM BKN025=



000
FTUS41 KBUF 280200 AAA
TAFIAG
TAF AMD
KIAG 280215Z 2802/2824 35005KT 1SM -SHSN OVC008
     FM280400 31006KT 5SM -SHSN OVC015
     FM280600 28010KT P6SM BKN040
     FM281700 26010KT P6SM BKN025=



000
FTUS41 KBUF 280100 AAB
TAFBUF
TAF AMD
KBUF 280146Z 2802/2824 32010KT 1SM -SHSN OVC008
     FM280300 29008KT 3SM -SHSN OVC015
     FM280500 28010KT P6SM BKN040
     FM281700 25010KT P6SM BKN025=



000
FTUS41 KBUF 280100 AAB
TAFBUF
TAF AMD
KBUF 280146Z 2802/2824 32010KT 1SM -SHSN OVC008
     FM280300 29008KT 3SM -SHSN OVC015
     FM280500 28010KT P6SM BKN040
     FM281700 25010KT P6SM BKN025=



000
FTUS41 KBUF 280100 AAA
TAFBUF
TAF AMD
KBUF 280103Z 2801/2824 32010KT 1SM -SHSN OVC008
     FM280200 29008KT 3SM -SHSN OVC015
     FM280500 28010KT P6SM BKN040
     FM281700 25010KT P6SM BKN025=



000
FTUS41 KBUF 280000 AAA
TAFART
TAF AMD
KART 280049Z 2801/2824 VRB03KT 3SM -SHSN OVC015
     FM280200 VRB03KT 5SM -SHSN OVC025
     FM280400 VRB03KT P6SM VCSH BKN040
     FM281200 30008KT P6SM BKN050
     FM282100 26008KT P6SM VCSH BKN040=



000
FTUS41 KBUF 272300 CCA
TAFJHW
TAF COR
KJHW 272359Z 2800/2824 25010KT 2SM -SHSN OVC008
     FM280100 28010KT 3SM -SHSN OVC015
     FM280200 31012KT 1SM -SHSN OVC008
     FM280500 30010KT 3SM -SHSN OVC015
     FM281300 28008KT P6SM VCSH BKN025
     FM281700 26008KT P6SM BKN040
      AMD LTD TO CLD VIS AND WIND=



000
FTUS41 KBUF 272300 CCA
TAFIAG
TAF COR
KIAG 272348Z 2800/2824 28010KT 3SM -SHSN OVC015
      TEMPO 2800/2803 1SM -SHSN
     FM280500 28010KT P6SM BKN040
     FM281700 26010KT P6SM BKN025=



000
FTUS41 KBUF 272300 CCA
TAFBUF
TAF COR
KBUF 272347Z 2800/2824 29008KT 3SM -SHSN OVC015
     FM280500 28010KT P6SM BKN040
     FM281700 25010KT P6SM BKN025=



000
FTUS41 KBUF 272300
TAFIAG
TAF
KIAG 272321Z 2800/2824 29016KT 1/2SM SHSN OVC008
     FM280030 31012KT 1SM -SHSN OVC008
     FM280200 31010KT 3SM -SHSN OVC015
     FM280600 28010KT P6SM BKN040
     FM281700 26010KT P6SM BKN025=



000
FTUS41 KBUF 272300
TAFART
TAF
KART 272321Z 2800/2824 VRB03KT 1SM -SHSN OVC015
     FM280200 VRB03KT 5SM -SHSN OVC025
     FM280400 VRB03KT P6SM VCSH BKN040
     FM281200 30008KT P6SM BKN050
     FM282100 26008KT P6SM VCSH BKN040=



000
FTUS41 KBUF 272300
TAFROC
TAF
KROC 272321Z 2800/2824 VRB05KT P6SM VCSH OVC025
     FM280300 29008KT 3SM -SHSN OVC015
     FM281300 27012G20KT P6SM VCSH BKN025
     FM281900 27010KT P6SM BKN040=



000
FTUS41 KBUF 272300
TAFJHW
TAF
KJHW 272321Z 2800/2824 28009KT 3SM -SHSN OVC015
     FM280200 31012KT 1SM -SHSN OVC007
     FM280500 30010KT 3SM -SHSN OVC015
     FM281300 28008KT P6SM VCSH BKN025
     FM281700 26008KT P6SM BKN040
      AMD LTD TO CLD VIS AND WIND=



000
FTUS41 KBUF 272300
TAFBUF
TAF
KBUF 272321Z 2800/2824 29008KT 1SM -SN OVC008
     FM280200 29010KT 3SM -SHSN OVC015
     FM280600 28010KT P6SM BKN040
     FM281700 25010KT P6SM BKN025=



000
FTUS41 KBUF 272300 AAC
TAFIAG
TAF AMD
KIAG 272301Z 2723/2818 28016KT 1/2SM SHSN OVC008
     FM280100 30010KT 1SM -SHSN OVC008
     FM280300 31011KT 4SM -SHSN OVC015
     FM280700 29012KT P6SM VCSH OVC200
     FM280800 28012KT P6SM BKN250
     FM281200 27011KT P6SM BKN030=



000
FTUS41 KBUF 272200 AAB
TAFART
TAF AMD
KART 272251Z 2723/2818 36004KT 2SM -SHSN OVC025
     FM280000 VRB03KT 6SM -SHSN OVC040
     FM280800 32004KT P6SM OVC080
     FM281100 32004KT P6SM BKN070
     FM281700 29007KT P6SM SCT050=



000
FTUS41 KBUF 272200 AAB
TAFJHW
TAF AMD
KJHW 272233Z 2723/2818 28009KT 3SM -SHSN OVC015
     FM280100 31012KT 1SM -SHSN OVC007
     FM280500 30010KT 2SM -SHSN OVC010
     FM281200 30009KT 5SM -SHSN OVC012
     FM281600 28009KT 5SM BR VCSH BKN020
     FM281700 27009KT P6SM BKN020
      AMD LTD TO CLD VIS AND WIND=



000
FTUS41 KBUF 272200 AAB
TAFROC
TAF AMD
KROC 272230Z 2723/2818 VRB03KT P6SM VCSH OVC025
     FM280400 29009KT 3SM -SHSN VCSH OVC020
     FM280900 29010KT 4SM BR VCSH OVC025
     FM281600 27013G20KT P6SM BKN030=



000
FTUS41 KBUF 272200 AAB
TAFIAG
TAF AMD
KIAG 272226Z 2722/2818 26005KT 6SM -SHSN OVC025
     FM272300 29005KT 1SM -SHSN OVC008
     FM280300 31011KT 4SM -SHSN OVC015
     FM280700 29012KT P6SM VCSH OVC200
     FM280800 28012KT P6SM BKN250
     FM281200 27011KT P6SM BKN030=



000
FTUS41 KBUF 272200 AAA
TAFBUF
TAF AMD
KBUF 272225Z 2722/2818 27006KT P6SM VCSH OVC040
     FM272330 29005KT 1SM -SN OVC008
     FM280300 29009KT 4SM -SHSN VCSH OVC015
     FM280700 28010KT 6SM BR VCSH OVC040
     FM281100 27010KT P6SM BKN050
     FM281700 26011KT P6SM BKN025=



000
FTUS41 KBUF 272000 AAA
TAFROC
TAF AMD
KROC 272058Z 2721/2818 29006KT 5SM -SHSN BKN025 OVC040
     FM272200 VRB03KT P6SM VCSH OVC025
     FM280600 29009KT 3SM -SHSN VCSH OVC025
     FM280800 29010KT 4SM BR VCSH OVC025
     FM281600 27013G20KT P6SM BKN030=



000
FTUS41 KBUF 272000 AAA
TAFIAG
TAF AMD
KIAG 272058Z 2721/2818 27006KT P6SM VCSH SCT025 BKN060
     FM272200 29005KT 2SM -SHSN OVC012
     FM280400 31011KT 4SM BR VCSH OVC020
     FM280700 29012KT P6SM VCSH OVC200
     FM280800 28012KT P6SM BKN250
     FM281200 27011KT P6SM BKN030=



000
FTUS41 KBUF 272000 AAA
TAFBUF
TAF AMD
KBUF 272058Z 2721/2818 25007KT P6SM VCSH SCT025 BKN035
     FM272200 27006KT 2SM -SHSN OVC012
     FM280400 29009KT 4SM BR VCSH OVC020
     FM280700 28010KT 6SM BR VCSH OVC040
     FM281100 27010KT P6SM BKN050
     FM281700 26011KT P6SM BKN025=



000
FTUS41 KBUF 272000 AAA
TAFART
TAF AMD
KART 272058Z 2721/2818 36004KT 3SM -SHSN OVC035
     FM272300 VRB03KT P6SM VCSH OVC045
     FM280800 32004KT P6SM OVC080
     FM281100 32004KT P6SM BKN070
     FM281700 29007KT P6SM SCT050=



000
FTUS41 KBUF 272000 AAA
TAFJHW
TAF AMD
KJHW 272058Z 2721/2818 28009KT 2SM -SHSN OVC012
     FM280300 30013KT 2SM -SHSN OVC007
     FM281200 30009KT 5SM -SHSN OVC012
     FM281600 28009KT 5SM BR VCSH BKN020
     FM281700 27009KT P6SM BKN020
      AMD LTD TO CLD VIS AND WIND=



000
FTUS41 KBUF 271700
TAFROC
TAF
KROC 271738Z 2718/2818 29006KT P6SM VCSH OVC040
      TEMPO 2719/2721 4SM -SHSN BKN025
     FM272200 VRB03KT P6SM VCSH OVC025
     FM280600 29009KT 3SM -SHSN VCSH OVC025
     FM280800 29010KT 4SM BR VCSH OVC025
     FM281600 27013G20KT P6SM BKN030=



000
FTUS41 KBUF 271700
TAFART
TAF
KART 271738Z 2718/2818 36004KT P6SM OVC035
     FM272200 VRB03KT P6SM VCSH OVC045
     FM280800 32004KT P6SM OVC080
     FM281100 32004KT P6SM BKN070
     FM281700 29007KT P6SM SCT050=



000
FTUS41 KBUF 271700
TAFJHW
TAF
KJHW 271738Z 2718/2818 29007KT P6SM -SHSN OVC025
     FM272100 28009KT 2SM -SHSN OVC012
     FM280300 30013KT 2SM -SHSN OVC007
     FM281200 30009KT 5SM -SHSN OVC012
     FM281600 28009KT 5SM BR VCSH BKN020
     FM281700 27009KT P6SM BKN020
      AMD LTD TO CLD VIS AND WIND=



000
FTUS41 KBUF 271700
TAFBUF
TAF
KBUF 271738Z 2718/2818 25006KT P6SM VCSH BKN015
     FM272200 27006KT 2SM -SHSN OVC012
     FM280400 29009KT 4SM BR VCSH OVC020
     FM280700 28010KT 6SM BR VCSH OVC040
     FM281100 27010KT P6SM BKN050
     FM281700 26011KT P6SM BKN025=



000
FTUS41 KBUF 271700
TAFIAG
TAF
KIAG 271738Z 2718/2818 23006KT P6SM VCSH SCT025 BKN060
     FM272200 29005KT 2SM -SHSN OVC012
     FM280400 31011KT 4SM BR VCSH OVC020
     FM280700 29012KT P6SM VCSH OVC200
     FM280800 28012KT P6SM BKN250
     FM281200 27011KT P6SM BKN030=



000
FTUS41 KBUF 271500 AAA
TAFROC
TAF AMD
KROC 271517Z 2715/2812 32007KT 6SM -SN OVC035
     FM272100 30005KT P6SM OVC050
     FM280200 27004KT P6SM OVC060
     FM280500 27006KT P6SM VCSH BKN025
     FM280800 27008KT 5SM -SN SCT015 OVC025=



000
FTUS41 KBUF 271500 AAA
TAFJHW
TAF AMD
KJHW 271517Z 2715/2812 31007KT P6SM VCSH OVC045
     FM272000 29007KT 4SM -SN OVC015
     FM272300 27008KT 1SM -SN OVC007
     FM280800 29008KT 1SM -SN BKN015
      AMD LTD TO CLD VIS AND WIND=



000
FTUS41 KBUF 271500 AAA
TAFBUF
TAF AMD
KBUF 271517Z 2715/2812 28006KT P6SM VCSH OVC035
     FM272000 28008KT P6SM BKN025
     FM272300 27006KT 6SM -SN OVC025
     FM280600 28010KT P6SM VCSH OVC025
     FM281000 27010KT P6SM BKN250=



000
FTUS41 KBUF 271500 AAA
TAFART
TAF AMD
KART 271517Z 2715/2812 01006KT P6SM SCT025 OVC035
     FM272000 32006KT P6SM OVC040
     FM280900 VRB03KT P6SM VCSH BKN040=



000
FTUS41 KBUF 271500 AAA
TAFIAG
TAF AMD
KIAG 271517Z 2715/2812 24006KT 4SM -SN OVC035
     FM271600 26006KT P6SM VCSH BKN035
     FM272000 27008KT P6SM OVC025
     FM272300 28006KT 6SM -SN SCT015 OVC025
     FM280600 29012KT P6SM OVC025
     FM281000 28010KT P6SM BKN250=



000
FTUS41 KBUF 271100
TAFROC
TAF
KROC 271132Z 2712/2812 31005KT 4SM -SN BKN025
      TEMPO 2712/2714 6SM -SN SCT025 BKN035
     FM271400 32007KT 6SM -SN OVC035
     FM272100 30005KT P6SM OVC050
     FM280200 27004KT P6SM OVC060
     FM280500 27006KT P6SM VCSH BKN025
     FM280800 27008KT 5SM -SN SCT015 OVC025=



000
FTUS41 KBUF 271100
TAFIAG
TAF
KIAG 271132Z 2712/2812 VRB03KT 6SM -SN OVC040
     FM271500 29006KT P6SM VCSH OVC035
     FM272000 27008KT P6SM OVC025
     FM272300 28006KT 6SM -SN SCT015 OVC025
     FM280600 29012KT P6SM OVC025
     FM281000 28010KT P6SM BKN250=



000
FTUS41 KBUF 271100
TAFJHW
TAF
KJHW 271132Z 2712/2812 02005KT P6SM VCSH OVC035
     FM271500 31007KT P6SM OVC025
     FM272000 29007KT 4SM -SN OVC015
     FM272300 27008KT 1SM -SN OVC007
     FM280800 29008KT 1SM -SN BKN015
      AMD LTD TO CLD VIS AND WIND=



000
FTUS41 KBUF 271100
TAFART
TAF
KART 271132Z 2712/2812 36008KT P6SM BKN025
     FM271500 01006KT P6SM SCT025 OVC070
     FM272000 32006KT P6SM OVC070
     FM280000 33004KT P6SM OVC040
     FM280900 VRB03KT P6SM VCSH BKN040=



000
FTUS41 KBUF 271100
TAFBUF
TAF
KBUF 271132Z 2712/2812 VRB03KT 6SM -SN OVC035
     FM271500 28006KT P6SM VCSH OVC035
     FM272000 28008KT P6SM BKN025
     FM272300 27006KT 6SM -SN OVC025
     FM280600 28010KT P6SM VCSH OVC025
     FM281000 27010KT P6SM BKN250=



000
FTUS41 KBUF 271000 AAB
TAFJHW
TAF AMD
KJHW 271018Z 2710/2806 02004KT P6SM SCT025 BKN040
     FM271400 32006KT P6SM BKN025
     FM272300 29008KT 2SM -SHSN OVC008
      AMD LTD TO CLD VIS AND WIND=



000
FTUS41 KBUF 271000 AAB
TAFIAG
TAF AMD
KIAG 271016Z 2710/2806 VRB03KT P6SM OVC045
     FM271500 29007KT P6SM BKN040
     FM280000 28005KT 5SM -SHSN OVC025=



000
FTUS41 KBUF 270800 AAA
TAFJHW
TAF AMD
KJHW 270843Z 2709/2806 34003KT P6SM SCT008 OVC015
     FM271400 31006KT P6SM BKN025
     FM272300 29008KT 2SM -SHSN OVC008
      AMD LTD TO CLD VIS AND WIND=



000
FTUS41 KBUF 270800 AAA
TAFROC
TAF AMD
KROC 270843Z 2709/2806 30005KT 5SM -SHSN OVC025
     FM271400 30008KT 5SM -SHSN OVC015
     FM271800 28008KT P6SM BKN025
     FM280300 30006KT 5SM -SHSN OVC025=



000
FTUS41 KBUF 270800 AAA
TAFART
TAF AMD
KART 270843Z 2709/2806 01006KT 6SM -SHSN OVC025
     FM271300 32005KT P6SM BKN050
     FM280200 32005KT 5SM -SHSN OVC025=



000
FTUS41 KBUF 270800 AAA
TAFIAG
TAF AMD
KIAG 270842Z 2709/2806 06005KT P6SM OVC025
     FM271100 35003KT P6SM -SHSN OVC035
     FM271500 29007KT P6SM BKN040
     FM280000 28005KT 5SM -SHSN OVC025=



000
FTUS41 KBUF 270800 AAA
TAFBUF
TAF AMD
KBUF 270841Z 2709/2806 04005KT 6SM -SN OVC035
      TEMPO 2710/2714 BKN025
     FM271400 30007KT P6SM BKN040
     FM280000 28008KT 3SM -SHSN OVC015=



000
FTUS41 KBUF 270500
TAFART
TAF
KART 270520Z 2706/2806 01006KT 6SM -SHSN OVC040
     FM271300 32005KT P6SM BKN050
     FM280200 32005KT 5SM -SHSN OVC025=



000
FTUS41 KBUF 270500
TAFIAG
TAF
KIAG 270520Z 2706/2806 03005KT P6SM OVC035
     FM271000 34003KT P6SM -SHSN OVC030
     FM271500 29007KT P6SM BKN040
     FM280000 28005KT 5SM -SHSN OVC025=



000
FTUS41 KBUF 270500
TAFBUF
TAF
KBUF 270520Z 2706/2806 03005KT P6SM -SHSN OVC030
     FM271400 30007KT P6SM BKN040
     FM280000 28008KT 3SM -SHSN OVC015=



000
FTUS41 KBUF 270500
TAFJHW
TAF
KJHW 270520Z 2706/2806 35005KT 6SM -SHSN BKN008 OVC025
     FM270900 34003KT P6SM SCT008 OVC025
     FM271400 31006KT P6SM BKN025
     FM272300 29008KT 2SM -SHSN OVC008
      AMD LTD TO CLD VIS AND WIND=



000
FTUS41 KBUF 270500
TAFROC
TAF
KROC 270520Z 2706/2806 35006KT 2SM -SHSN OVC015
     FM270630 35005KT 5SM -SHSN OVC015
     FM271000 35005KT 3SM -SHSN OVC008
     FM271400 30008KT 5SM -SHSN OVC015
     FM271800 28008KT P6SM BKN025
     FM280300 30006KT 5SM -SHSN OVC025=



000
FTUS41 KBUF 270200 AAA
TAFIAG
TAF AMD
KIAG 270254Z 2703/2724 02006KT P6SM OVC030
     FM270600 VRB03KT P6SM OVC035
     FM271400 29007KT P6SM BKN040
     FM272300 28005KT P6SM -SHSN OVC025=



000
FTUS41 KBUF 270200 AAA
TAFJHW
TAF AMD
KJHW 270254Z 2703/2724 36006KT 6SM -SHSN OVC008
     FM270500 35005KT 6SM -SHSN SCT008 OVC015
     FM271400 31006KT P6SM BKN025
     FM272200 29008KT 3SM -SHSN OVC015
      AMD LTD TO CLD VIS AND WIND=



000
FTUS41 KBUF 270200 AAA
TAFROC
TAF AMD
KROC 270254Z 2703/2724 01005KT 5SM -SHSN OVC015
     FM270500 01005KT 2SM -SHSN OVC008
     FM270800 35005KT 5SM -SHSN OVC012
     FM271400 30008KT P6SM BKN025=



000
FTUS41 KBUF 270200 AAA
TAFBUF
TAF AMD
KBUF 270254Z 2703/2724 03006KT P6SM -SHSN OVC025
     FM270600 VRB03KT P6SM OVC030
     FM271400 29007KT P6SM BKN040
     FM272300 27005KT P6SM -SHSN OVC025=



000
FTUS41 KBUF 270200 AAA
TAFART
TAF AMD
KART 270254Z 2703/2724 03008KT P6SM -SHSN OVC040
     FM270600 01006KT P6SM OVC040
     FM271500 32005KT P6SM BKN050=



000
FTUS41 KBUF 262300 CCA
TAFROC
TAF COR
KROC 262359Z 2700/2724 03010KT 3SM -SN OVC015
     FM270200 01005KT P6SM VCSH OVC015
     FM270400 36005KT 3SM -SHSN OVC008
     FM271000 31008KT P6SM BKN025=



000
FTUS41 KBUF 262300
TAFJHW
TAF
KJHW 262339Z 2700/2724 36006KT P6SM SCT008 BKN025
     FM270400 35005KT 6SM -SHSN SCT008 OVC015
     FM271500 31006KT P6SM BKN025
      AMD LTD TO CLD VIS AND WIND=



000
FTUS41 KBUF 262300
TAFBUF
TAF
KBUF 262339Z 2700/2724 04008KT P6SM -SHSN OVC015
     FM270200 03005KT P6SM OVC025
     FM270600 VRB03KT P6SM BKN035
     FM271400 29007KT P6SM BKN040=



000
FTUS41 KBUF 262300
TAFIAG
TAF
KIAG 262339Z 2700/2724 05010KT P6SM OVC015
     FM270200 02006KT P6SM OVC025
     FM270600 VRB03KT P6SM BKN035
     FM271400 29007KT P6SM BKN040=



000
FTUS41 KBUF 262300
TAFROC
TAF
KROC 262339Z 2700/2724 03010KT 3SM -SN OVC015
     FM270200 01005KT P6SM VCSH OVC015
      TEMPO 2707/2711 2SM -SHSN OVC008
     FM271200 30008KT P6SM BKN025=



000
FTUS41 KBUF 262300
TAFART
TAF
KART 262339Z 2700/2724 03010KT 3SM -SN OVC025
     FM270300 02007KT 6SM -SHSN OVC025
     FM270800 36005KT P6SM OVC040
     FM271500 32005KT P6SM BKN050=



000
FTUS41 KBUF 262200 AAC
TAFROC
TAF AMD
KROC 262237Z 2623/2718 04010KT 2SM -SN BR OVC008
     FM262300 03008KT 5SM -SN OVC015
     FM270100 03008KT P6SM OVC025
     FM271200 31007KT P6SM BKN045
     FM271300 31007KT P6SM BKN060=



000
FTUS41 KBUF 262200 AAC
TAFIAG
TAF AMD
KIAG 262236Z 2623/2718 04010KT P6SM OVC015
     FM270200 02005KT P6SM BKN025
     FM270700 VRB03KT P6SM BKN050
     FM271300 32004KT P6SM BKN070=



000
FTUS41 KBUF 262200 AAA
TAFBUF
TAF AMD
KBUF 262235Z 2623/2718 04008KT P6SM VCSH SCT006 OVC015
     FM270200 04005KT P6SM BKN025
     FM270600 VRB04KT P6SM BKN035
     FM271400 31004KT P6SM BKN060
     FM271700 29006KT P6SM BKN025=



000
FTUS41 KBUF 262000 AAB
TAFIAG
TAF AMD
KIAG 262055Z 2621/2718 06010KT 6SM -SN BKN014 BKN030
     FM262200 03006KT 6SM BR BKN020
     FM270500 02004KT P6SM BKN025
     FM270700 VRB03KT P6SM BKN050
     FM271300 32004KT P6SM BKN070=



000
FTUS41 KBUF 262000 AAB
TAFBUF
TAF AMD
KBUF 262055Z 2621/2718 03006KT 4SM -SN BR BKN030 OVC035
     FM262200 04007KT 6SM BR VCSH OVC020
     FM270600 VRB04KT P6SM BKN035
     FM271400 31004KT P6SM BKN060
     FM271700 29006KT P6SM BKN025=



000
FTUS41 KBUF 262000 AAB
TAFART
TAF AMD
KART 262055Z 2621/2718 03008KT P6SM OVC060
     FM262300 03009KT 3SM -SHSN OVC025
     FM270200 02008KT 6SM BR VCSH OVC025
     FM270400 02007KT P6SM OVC035
     FM271300 36004KT P6SM BKN050=



000
FTUS41 KBUF 262000 AAB
TAFJHW
TAF AMD
KJHW 262055Z 2621/2718 05005KT 4SM -SN BKN035 OVC050
     FM262200 05006KT 5SM BR VCSH BKN020
     FM262300 03006KT P6SM BKN012
     FM271300 34004KT P6SM BKN012
      AMD LTD TO CLD VIS AND WIND=



000
FTUS41 KBUF 262000 AAB
TAFROC
TAF AMD
KROC 262055Z 2621/2718 36004KT 2SM -SN BR BKN015 OVC025
     FM262300 01005KT 5SM BR BKN025
     FM270000 03009KT P6SM OVC025
     FM271200 31007KT P6SM BKN045
     FM271300 31007KT P6SM BKN060=



000
FTUS41 KBUF 261900 AAA
TAFBUF
TAF AMD
KBUF 261906Z 2619/2718 05009KT 1SM -SN OVC020
     FM262000 04008KT 2SM -SHSN OVC020
     FM262200 04007KT 6SM BR VCSH OVC020
     FM270600 VRB04KT P6SM BKN035
     FM271400 31004KT P6SM BKN060
     FM271700 29006KT P6SM BKN025=



000
FTUS41 KBUF 261900 AAA
TAFJHW
TAF AMD
KJHW 261906Z 2619/2718 06005KT 1SM -SN OVC020
     FM262200 05006KT 5SM BR VCSH BKN020
     FM262300 03006KT P6SM BKN012
     FM271300 34004KT P6SM BKN012
      AMD LTD TO CLD VIS AND WIND=



000
FTUS41 KBUF 261900 AAA
TAFROC
TAF AMD
KROC 261906Z 2619/2718 05007KT 2SM -SN OVC020
     FM262100 04008KT 3SM -SHSN OVC015
     FM270000 03009KT P6SM OVC012
     FM271200 31007KT P6SM BKN045
     FM271300 31007KT P6SM BKN060=



000
FTUS41 KBUF 261900 AAA
TAFIAG
TAF AMD
KIAG 261906Z 2619/2718 08008KT 1SM -SN OVC020
     FM262000 07009KT 2SM -SHSN OVC020
     FM262200 03006KT 6SM BR BKN020
     FM270500 02004KT P6SM BKN025
     FM270700 VRB03KT P6SM BKN050
     FM271300 32004KT P6SM BKN070=



000
FTUS41 KBUF 261900 AAA
TAFART
TAF AMD
KART 261906Z 2619/2718 04009KT P6SM OVC060
     FM262030 03009KT 1SM -SN OVC050
     FM262300 03009KT 3SM -SHSN OVC025
     FM270200 02008KT 6SM BR VCSH OVC025
     FM270400 02007KT P6SM OVC035
     FM271300 36004KT P6SM BKN050=



000
FTUS41 KBUF 261700
TAFIAG
TAF
KIAG 261739Z 2618/2718 08008KT P6SM VCSH OVC025
     FM262000 07009KT 3SM -SHSN OVC020
     FM262200 03006KT 6SM BR BKN020
     FM270500 02004KT P6SM BKN025
     FM270700 VRB03KT P6SM BKN050
     FM271300 32004KT P6SM BKN070=



000
FTUS41 KBUF 261700
TAFJHW
TAF
KJHW 261739Z 2618/2718 07005KT 2SM -SN OVC020
     FM261900 06005KT 4SM -SN OVC020
     FM262200 05006KT 5SM BR VCSH BKN020
     FM262300 03006KT P6SM BKN012
     FM271300 34004KT P6SM BKN012
      AMD LTD TO CLD VIS AND WIND=



000
FTUS41 KBUF 261700
TAFROC
TAF
KROC 261739Z 2618/2718 06007KT P6SM VCSH OVC025
     FM261900 05007KT P6SM VCSH OVC020
     FM262100 04008KT 3SM -SHSN OVC015
     FM270000 03009KT P6SM OVC012
     FM271200 31007KT P6SM BKN045
     FM271300 31007KT P6SM BKN060=



000
FTUS41 KBUF 261700
TAFBUF
TAF
KBUF 261739Z 2618/2718 05009KT P6SM VCSH OVC030
     FM262000 04008KT 3SM -SHSN OVC020
     FM262200 04007KT 6SM BR VCSH OVC020
     FM270600 VRB04KT P6SM BKN035
     FM271400 31004KT P6SM BKN060
     FM271700 29006KT P6SM BKN025=



000
FTUS41 KBUF 261700
TAFART
TAF
KART 261739Z 2618/2718 04009KT P6SM OVC060
     FM262100 03009KT P6SM VCSH OVC050
     FM262300 03009KT 3SM -SHSN OVC025
     FM270200 02008KT 6SM BR VCSH OVC025
     FM270400 02007KT P6SM OVC035
     FM271300 36004KT P6SM BKN050=



000
FTUS41 KBUF 261500 AAA
TAFROC
TAF AMD
KROC 261516Z 2615/2712 VRB05KT P6SM OVC025
     FM261600 05010KT P6SM VCSH OVC025
     FM262000 04010KT P6SM VCSH OVC020
     FM270200 01008KT P6SM OVC025
     FM270700 34006KT P6SM OVC035=



000
FTUS41 KBUF 261500 AAA
TAFJHW
TAF AMD
KJHW 261516Z 2615/2712 VRB05KT P6SM OVC025
     FM261700 05005KT P6SM VCSH OVC015
     FM270000 03004KT P6SM OVC012
     FM271000 VRB03KT P6SM BKN020
      AMD LTD TO CLD VIS AND WIND=



000
FTUS41 KBUF 261500 AAA
TAFIAG
TAF AMD
KIAG 261516Z 2615/2712 VRB05KT P6SM OVC035
     FM261600 05009KT P6SM OVC035
     FM262100 05009KT P6SM OVC025
     FM270200 04006KT P6SM BKN035
     FM270600 VRB03KT P6SM BKN040=



000
FTUS41 KBUF 261500 AAA
TAFBUF
TAF AMD
KBUF 261516Z 2615/2712 VRB05KT P6SM OVC035
     FM261700 05008KT P6SM VCSH OVC035
     FM262100 05008KT P6SM VCSH OVC025
     FM262300 04007KT P6SM OVC025
     FM270300 03006KT P6SM BKN035
     FM270800 VRB03KT P6SM BKN035=



000
FTUS41 KBUF 261500 AAA
TAFART
TAF AMD
KART 261516Z 2615/2712 02006KT P6SM OVC040
     FM261900 03008KT P6SM VCSH OVC035
     FM262100 03009KT P6SM VCSH OVC025
     FM270200 02008KT P6SM VCSH OVC035
     FM270500 36006KT P6SM OVC035=



000
FTUS41 KBUF 261100
TAFBUF
TAF
KBUF 261120Z 2612/2712 VRB05KT P6SM OVC035
     FM261700 05008KT P6SM VCSH OVC035
     FM262100 05008KT P6SM VCSH OVC025
     FM262300 04007KT P6SM OVC025
     FM270300 03006KT P6SM BKN035
     FM270800 VRB03KT P6SM BKN035=



000
FTUS41 KBUF 261100
TAFART
TAF
KART 261120Z 2612/2712 02006KT P6SM OVC040
     FM261900 03008KT P6SM VCSH OVC035
     FM262100 03009KT P6SM VCSH OVC025
     FM270200 02008KT P6SM VCSH OVC035
     FM270500 36006KT P6SM OVC035=



000
FTUS41 KBUF 261100
TAFIAG
TAF
KIAG 261120Z 2612/2712 VRB05KT P6SM OVC035
     FM261600 05009KT P6SM OVC035
     FM262100 05009KT P6SM OVC025
     FM270200 04006KT P6SM BKN035
     FM270600 VRB03KT P6SM BKN040=



000
FTUS41 KBUF 261100
TAFROC
TAF
KROC 261120Z 2612/2712 VRB05KT P6SM OVC035
     FM261600 05010KT P6SM VCSH OVC035
     FM262000 04010KT P6SM VCSH OVC020
     FM270200 01008KT P6SM OVC025
     FM270700 34006KT P6SM OVC035=



000
FTUS41 KBUF 261100
TAFJHW
TAF
KJHW 261120Z 2612/2712 VRB05KT P6SM OVC015
     FM261600 05005KT P6SM VCSH OVC012
     FM270000 03004KT P6SM OVC012
     FM271000 VRB03KT P6SM BKN020
      AMD LTD TO CLD VIS AND WIND=



000
FTUS41 KBUF 260800 AAA
TAFART
TAF AMD
KART 260859Z 2609/2706 31005KT P6SM OVC045
     FM261400 03008KT P6SM BKN100
     FM262000 02008KT P6SM BKN040=



000
FTUS41 KBUF 260800 AAA
TAFIAG
TAF AMD
KIAG 260859Z 2609/2706 VRB03KT P6SM BKN040
     FM261300 06003KT P6SM BKN100
     FM261800 05006KT P6SM SCT025 BKN100
     FM270000 03006KT P6SM BKN040=



000
FTUS41 KBUF 260800 AAA
TAFBUF
TAF AMD
KBUF 260859Z 2609/2706 VRB03KT P6SM BKN040
     FM261300 05003KT P6SM BKN100
     FM261800 04006KT P6SM SCT025 BKN100
     FM270000 02005KT P6SM BKN040=



000
FTUS41 KBUF 260800 AAA
TAFROC
TAF AMD
KROC 260859Z 2609/2706 VRB03KT P6SM OVC040
     FM261800 03008KT 5SM -SN OVC025
     FM262300 02006KT P6SM OVC025=



000
FTUS41 KBUF 260800 AAA
TAFJHW
TAF AMD
KJHW 260859Z 2609/2706 VRB03KT P6SM OVC015
     FM261300 04004KT P6SM OVC025
     FM261800 04006KT 6SM -SHSN OVC015
     FM262300 03005KT P6SM BKN025
      AMD LTD TO CLD VIS AND WIND=



000
FTUS41 KBUF 260500
TAFBUF
TAF
KBUF 260520Z 2606/2706 26005KT P6SM BKN040
     FM261300 05003KT P6SM BKN100
     FM261800 04006KT P6SM SCT025 BKN100
     FM270000 02005KT P6SM BKN040=



000
FTUS41 KBUF 260500
TAFART
TAF
KART 260520Z 2606/2706 26010KT P6SM BKN050
     FM261400 03008KT P6SM BKN100
     FM262000 02008KT P6SM BKN040=



000
FTUS41 KBUF 260500
TAFJHW
TAF
KJHW 260520Z 2606/2706 30005KT P6SM OVC020
     FM261200 04004KT P6SM OVC025
     FM261800 04006KT 6SM -SHSN OVC015
     FM262300 03005KT P6SM BKN025
      AMD LTD TO CLD VIS AND WIND=



000
FTUS41 KBUF 260500
TAFROC
TAF
KROC 260520Z 2606/2706 27005KT P6SM BKN200
     FM261800 03008KT 5SM -SN OVC025
     FM262300 02006KT P6SM OVC025=



000
FTUS41 KBUF 260500
TAFIAG
TAF
KIAG 260520Z 2606/2706 27005KT P6SM SCT050
     FM261300 06003KT P6SM BKN100
     FM261800 05006KT P6SM SCT025 BKN100
     FM270000 03006KT P6SM BKN040=



000
FTUS41 KBUF 260200 AAA
TAFART
TAF AMD
KART 260226Z 2602/2624 26014KT P6SM BKN040
     FM260600 27006KT P6SM BKN200
     FM261400 03008KT P6SM BKN100=



000
FTUS41 KBUF 260200 AAA
TAFJHW
TAF AMD
KJHW 260226Z 2602/2624 27008KT 6SM -SHSN OVC015
     FM260600 VRB03KT P6SM VCSH OVC015
     FM261200 04004KT P6SM OVC025
     FM261800 04006KT P6SM VCSH OVC025
      AMD LTD TO CLD VIS AND WIND=



000
FTUS41 KBUF 260200 AAA
TAFROC
TAF AMD
KROC 260226Z 2602/2624 26008KT P6SM BKN040
     FM260500 VRB05KT P6SM BKN200
     FM261800 03008KT 5SM -SN OVC025=



000
FTUS41 KBUF 260200 AAA
TAFBUF
TAF AMD
KBUF 260226Z 2602/2624 27008KT P6SM BKN040
     FM260500 VRB03KT P6SM SCT050
     FM261300 05003KT P6SM BKN100
     FM261800 04006KT P6SM SCT025 BKN100=



000
FTUS41 KBUF 260200 AAA
TAFIAG
TAF AMD
KIAG 260226Z 2602/2624 27010KT P6SM BKN040
     FM260500 VRB03KT P6SM SCT050
     FM261300 06003KT P6SM BKN100
     FM261800 05006KT P6SM SCT025 BKN100=



000
FTUS41 KBUF 252300
TAFBUF
TAF
KBUF 252338Z 2600/2624 26014KT P6SM VCSH OVC025
     FM260100 25008KT P6SM BKN050
     FM260500 VRB03KT P6SM SCT050
     FM261300 05003KT P6SM BKN100
     FM261800 04006KT P6SM SCT025 BKN100=



000
FTUS41 KBUF 252300
TAFROC
TAF
KROC 252338Z 2600/2624 27016KT P6SM VCSH OVC025
     FM260100 26008KT P6SM BKN050
     FM260500 VRB05KT P6SM BKN200
     FM261800 03008KT 5SM -SN OVC025=



000
FTUS41 KBUF 252300
TAFART
TAF
KART 252338Z 2600/2624 25018G26KT 6SM -SHRA OVC025
     FM260200 26012KT P6SM OVC040
     FM260600 27006KT P6SM BKN200
     FM261400 03008KT P6SM BKN100=



000
FTUS41 KBUF 252300
TAFIAG
TAF
KIAG 252338Z 2600/2624 26016KT P6SM BKN050
     FM260200 26008KT P6SM BKN050
     FM260500 VRB03KT P6SM SCT050
     FM261300 06003KT P6SM BKN100
     FM261800 05006KT P6SM SCT025 BKN100=



000
FTUS41 KBUF 252300
TAFJHW
TAF
KJHW 252338Z 2600/2624 23012KT P6SM VCSH OVC025
     FM260200 28006KT 5SM -SHSN OVC015
     FM260600 VRB03KT P6SM VCSH OVC015
     FM261200 04004KT P6SM OVC025
     FM261800 04006KT P6SM VCSH OVC025
      AMD LTD TO CLD VIS AND WIND=



000
FTUS41 KBUF 252200 CCA
TAFIAG
TAF COR
KIAG 252213Z 2522/2618 26020G30KT P6SM VCSH OVC025
     FM252300 25015KT P6SM BKN040
     FM260300 24006KT P6SM BKN250
     FM261100 VRB04KT P6SM BKN140
     FM261700 06004KT P6SM BKN110=



000
FTUS41 KBUF 252200 AAB
TAFIAG
TAF AMD
KIAG 252212Z 2522/2618 24024G30KT P6SM VCSH OVC025
     FM252300 25015KT P6SM BKN040
     FM260300 24006KT P6SM BKN250
     FM261100 VRB04KT P6SM BKN140
     FM261700 06004KT P6SM BKN110=



000
FTUS41 KBUF 252200 AAB
TAFJHW
TAF AMD
KJHW 252212Z 2522/2618 24013G20KT P6SM OVC025
     FM260000 26011KT 6SM -DZ VCSH OVC012
     FM260600 29005KT P6SM OVC025
     FM260800 VRB03KT P6SM OVC020
     FM261300 04004KT P6SM OVC015
      AMD LTD TO CLD VIS AND WIND=



000
FTUS41 KBUF 252000 AAA
TAFJHW
TAF AMD
KJHW 252048Z 2521/2618 24013G20KT P6SM OVC035
     FM260000 26011KT 6SM -DZ VCSH OVC012
     FM260600 29005KT P6SM OVC025
     FM260800 VRB03KT P6SM OVC020
     FM261300 04004KT P6SM OVC015
      AMD LTD TO CLD VIS AND WIND=



000
FTUS41 KBUF 252000 AAA
TAFBUF
TAF AMD
KBUF 252048Z 2521/2618 23016G22KT P6SM -DZ VCSH OVC025
     FM260300 25006KT P6SM BKN250
     FM261200 VRB04KT P6SM BKN120
     FM261600 06004KT P6SM BKN100=



000
FTUS41 KBUF 252000 AAA
TAFROC
TAF AMD
KROC 252048Z 2521/2618 25016G21KT P6SM VCSH OVC035
     FM260100 26014KT P6SM OVC250
     FM260400 26009KT P6SM BKN250
     FM261000 VRB03KT 6SM BR BKN025
     FM261500 00000KT P6SM OVC060=



000
FTUS41 KBUF 252000 AAA
TAFIAG
TAF AMD
KIAG 252048Z 2521/2618 24024G30KT P6SM -DZ VCSH OVC025
     FM252200 25016KT P6SM VCSH BKN040
     FM260000 25014KT P6SM BKN050
     FM260300 24006KT P6SM BKN250
     FM261100 VRB04KT P6SM BKN140
     FM261700 06004KT P6SM BKN110=



000
FTUS41 KBUF 252000 AAA
TAFART
TAF AMD
KART 252048Z 2521/2618 24014G22KT 6SM -DZ VCSH OVC030
     FM260400 25013G19KT P6SM OVC080
     FM260700 27008KT P6SM BKN200
     FM261200 VRB04KT P6SM BKN120
     FM261600 03005KT P6SM BKN110=



000
FTUS41 KBUF 251700
TAFIAG
TAF
KIAG 251735Z 2518/2618 24024G30KT P6SM -DZ VCSH OVC025
     FM252200 25016KT P6SM VCSH BKN040
     FM260000 25014KT P6SM BKN050
     FM260300 24006KT P6SM BKN250
     FM261100 VRB04KT P6SM BKN140
     FM261700 06004KT P6SM BKN110=



000
FTUS41 KBUF 251700
TAFBUF
TAF
KBUF 251735Z 2518/2618 23019G28KT P6SM VCSH OVC035
     FM252000 23016G22KT P6SM -DZ VCSH OVC025
     FM260300 25006KT P6SM BKN250
     FM261200 VRB04KT P6SM BKN120
     FM261600 06004KT P6SM BKN100=



000
FTUS41 KBUF 251700
TAFART
TAF
KART 251735Z 2518/2618 23017G27KT P6SM BKN045
     FM252100 24014G22KT 6SM -DZ VCSH OVC030
     FM260400 25013G19KT P6SM OVC080
     FM260700 27008KT P6SM BKN200
     FM261200 VRB04KT P6SM BKN120
     FM261600 03005KT P6SM BKN110=



000
FTUS41 KBUF 251700
TAFJHW
TAF
KJHW 251735Z 2518/2618 24013G23KT P6SM OVC025
     FM260000 26011KT 6SM -DZ VCSH OVC012
     FM260600 29005KT P6SM OVC025
     FM260800 VRB03KT P6SM OVC020
     FM261300 04004KT P6SM OVC015
      AMD LTD TO CLD VIS AND WIND=



000
FTUS41 KBUF 251700
TAFROC
TAF
KROC 251735Z 2518/2618 24020G30KT P6SM BKN040
     FM252100 25016G21KT P6SM VCSH OVC035
     FM260100 26014G21KT P6SM OVC250
     FM260400 26009KT P6SM BKN250
     FM261000 VRB03KT 6SM BR BKN025
     FM261500 00000KT P6SM OVC060=



000
FTUS41 KBUF 251500 AAA
TAFART
TAF AMD
KART 251515Z 2515/2612 23013G23KT P6SM VCSH BKN040
     FM260600 26011KT P6SM BKN015
     FM260800 27007KT P6SM BKN020
     FM261000 29004KT P6SM BKN200=



000
FTUS41 KBUF 251500 AAA
TAFBUF
TAF AMD
KBUF 251515Z 2515/2612 23020G29KT P6SM VCSH BKN025
     FM252300 25014G21KT P6SM BKN012
     FM260300 25009KT P6SM BKN015
     FM260700 25005KT P6SM BKN200
     FM261100 00000KT P6SM BKN130=



000
FTUS41 KBUF 251500 AAA
TAFJHW
TAF AMD
KJHW 251515Z 2515/2612 23012KT P6SM BKN025
     FM260400 26008KT P6SM BKN012
     FM260700 24004KT P6SM BKN012
      AMD LTD TO CLD VIS AND WIND=



000
FTUS41 KBUF 251500 AAA
TAFIAG
TAF AMD
KIAG 251515Z 2515/2612 24020G27KT P6SM VCSH BKN025
     FM252000 24018KT P6SM BKN020
     FM252300 24014KT P6SM BKN050
     FM260400 24008KT P6SM BKN250
     FM261100 00000KT P6SM BKN130=



000
FTUS41 KBUF 251500 AAA
TAFROC
TAF AMD
KROC 251515Z 2515/2612 23016G24KT P6SM BKN035
     FM260100 25015G21KT P6SM BKN045
     FM260300 25011KT P6SM BKN030
     FM260700 25006KT P6SM BKN200=



    US Dept of Commerce
    National Oceanic and Atmospheric Administration
    National Weather Service
    1325 East West Highway
    Silver Spring, MD 20910
    Page Author: NWS Internet Services Team
Disclaimer
Information Quality
Credits
Glossary
Privacy Policy
Freedom of Information Act (FOIA)
About Us
Career Opportunities